sensor_id;sensor_type;location;lat;lon;timestamp;P1;durP1;ratioP1;P2;durP2;ratioP2
32347;SDS011;18821;44.800;10.326;2023-01-16T00:01:03;181.70;;;94.25;;
32347;SDS011;18821;44.800;10.326;2023-01-16T00:03:29;195.18;;;100.22;;
32347;SDS011;18821;44.800;10.326;2023-01-16T00:05:55;186.85;;;95.97;;
32347;SDS011;18821;44.800;10.326;2023-01-16T00:08:21;188.35;;;93.03;;
32347;SDS011;18821;44.800;10.326;2023-01-16T00:10:47;199.15;;;97.70;;
32347;SDS011;18821;44.800;10.326;2023-01-16T00:13:13;190.00;;;95.75;;
32347;SDS011;18821;44.800;10.326;2023-01-16T00:15:45;192.98;;;99.93;;
32347;SDS011;18821;44.800;10.326;2023-01-16T00:18:13;175.13;;;81.93;;
32347;SDS011;18821;44.800;10.326;2023-01-16T00:20:39;201.27;;;98.97;;
32347;SDS011;18821;44.800;10.326;2023-01-16T00:23:05;194.23;;;101.65;;
32347;SDS011;18821;44.800;10.326;2023-01-16T00:25:32;212.55;;;104.05;;
32347;SDS011;18821;44.800;10.326;2023-01-16T00:27:58;207.90;;;100.38;;
32347;SDS011;18821;44.800;10.326;2023-01-16T00:30:24;196.48;;;101.80;;
32347;SDS011;18821;44.800;10.326;2023-01-16T00:32:50;196.32;;;93.03;;
32347;SDS011;18821;44.800;10.326;2023-01-16T00:35:16;168.18;;;80.88;;
32347;SDS011;18821;44.800;10.326;2023-01-16T00:37:42;193.63;;;97.15;;
32347;SDS011;18821;44.800;10.326;2023-01-16T00:40:08;177.02;;;91.20;;
32347;SDS011;18821;44.800;10.326;2023-01-16T00:42:34;188.95;;;98.40;;
32347;SDS011;18821;44.800;10.326;2023-01-16T00:45:00;192.05;;;96.45;;
32347;SDS011;18821;44.800;10.326;2023-01-16T00:47:26;167.57;;;81.50;;
32347;SDS011;18821;44.800;10.326;2023-01-16T00:49:52;180.90;;;89.47;;
32347;SDS011;18821;44.800;10.326;2023-01-16T00:52:18;176.95;;;87.57;;
32347;SDS011;18821;44.800;10.326;2023-01-16T00:54:44;171.52;;;88.32;;
32347;SDS011;18821;44.800;10.326;2023-01-16T00:57:11;184.00;;;89.90;;
32347;SDS011;18821;44.800;10.326;2023-01-16T00:59:37;183.15;;;90.32;;
32347;SDS011;18821;44.800;10.326;2023-01-16T01:02:02;166.68;;;84.60;;
32347;SDS011;18821;44.800;10.326;2023-01-16T01:04:28;175.43;;;86.22;;
32347;SDS011;18821;44.800;10.326;2023-01-16T01:06:55;167.70;;;83.78;;
32347;SDS011;18821;44.800;10.326;2023-01-16T01:09:22;173.88;;;85.78;;
32347;SDS011;18821;44.800;10.326;2023-01-16T01:11:48;166.38;;;85.07;;
32347;SDS011;18821;44.800;10.326;2023-01-16T01:14:14;155.57;;;77.30;;
32347;SDS011;18821;44.800;10.326;2023-01-16T01:16:40;151.40;;;77.07;;
32347;SDS011;18821;44.800;10.326;2023-01-16T01:19:06;165.00;;;81.53;;
32347;SDS011;18821;44.800;10.326;2023-01-16T01:21:32;156.90;;;79.22;;
32347;SDS011;18821;44.800;10.326;2023-01-16T01:23:58;151.82;;;77.60;;
32347;SDS011;18821;44.800;10.326;2023-01-16T01:26:24;152.65;;;75.55;;
32347;SDS011;18821;44.800;10.326;2023-01-16T01:28:50;152.57;;;78.32;;
32347;SDS011;18821;44.800;10.326;2023-01-16T01:31:16;152.02;;;76.30;;
32347;SDS011;18821;44.800;10.326;2023-01-16T01:33:42;139.20;;;71.28;;
32347;SDS011;18821;44.800;10.326;2023-01-16T01:36:08;145.77;;;74.15;;
32347;SDS011;18821;44.800;10.326;2023-01-16T01:38:34;144.02;;;73.35;;
32347;SDS011;18821;44.800;10.326;2023-01-16T01:41:00;143.52;;;75.43;;
32347;SDS011;18821;44.800;10.326;2023-01-16T01:46:48;136.02;;;71.10;;
32347;SDS011;18821;44.800;10.326;2023-01-16T01:49:27;144.30;;;75.95;;
32347;SDS011;18821;44.800;10.326;2023-01-16T01:51:56;141.98;;;72.88;;
32347;SDS011;18821;44.800;10.326;2023-01-16T01:54:28;145.65;;;74.28;;
32347;SDS011;18821;44.800;10.326;2023-01-16T01:57:15;142.65;;;74.63;;
32347;SDS011;18821;44.800;10.326;2023-01-16T01:59:59;141.32;;;72.00;;
32347;SDS011;18821;44.800;10.326;2023-01-16T02:02:39;124.13;;;60.58;;
32347;SDS011;18821;44.800;10.326;2023-01-16T02:05:10;146.13;;;74.50;;
32347;SDS011;18821;44.800;10.326;2023-01-16T02:07:41;154.82;;;78.85;;
32347;SDS011;18821;44.800;10.326;2023-01-16T02:10:10;164.50;;;79.70;;
32347;SDS011;18821;44.800;10.326;2023-01-16T02:12:57;156.32;;;80.65;;
32347;SDS011;18821;44.800;10.326;2023-01-16T02:15:23;153.80;;;77.38;;
32347;SDS011;18821;44.800;10.326;2023-01-16T02:17:49;157.48;;;79.22;;
32347;SDS011;18821;44.800;10.326;2023-01-16T02:26:01;160.85;;;77.95;;
32347;SDS011;18821;44.800;10.326;2023-01-16T02:42:20;169.52;;;81.10;;
32347;SDS011;18821;44.800;10.326;2023-01-16T02:50:42;185.80;;;86.72;;
32347;SDS011;18821;44.800;10.326;2023-01-16T02:53:36;181.15;;;88.47;;
32347;SDS011;18821;44.800;10.326;2023-01-16T02:56:11;180.43;;;84.00;;
32347;SDS011;18821;44.800;10.326;2023-01-16T02:58:45;163.80;;;83.88;;
32347;SDS011;18821;44.800;10.326;2023-01-16T03:01:12;170.98;;;76.88;;
32347;SDS011;18821;44.800;10.326;2023-01-16T03:11:24;179.23;;;88.43;;
32347;SDS011;18821;44.800;10.326;2023-01-16T03:28:07;186.82;;;87.03;;
32347;SDS011;18821;44.800;10.326;2023-01-16T03:31:05;202.52;;;92.97;;
32347;SDS011;18821;44.800;10.326;2023-01-16T03:33:57;195.40;;;91.38;;
32347;SDS011;18821;44.800;10.326;2023-01-16T03:36:40;187.23;;;91.53;;
32347;SDS011;18821;44.800;10.326;2023-01-16T03:39:43;198.85;;;94.32;;
32347;SDS011;18821;44.800;10.326;2023-01-16T03:42:14;194.57;;;93.45;;
32347;SDS011;18821;44.800;10.326;2023-01-16T03:44:46;196.45;;;93.88;;
32347;SDS011;18821;44.800;10.326;2023-01-16T03:47:22;190.52;;;90.65;;
32347;SDS011;18821;44.800;10.326;2023-01-16T03:49:57;198.15;;;95.03;;
32347;SDS011;18821;44.800;10.326;2023-01-16T03:52:30;191.52;;;92.47;;
32347;SDS011;18821;44.800;10.326;2023-01-16T03:55:06;186.93;;;92.90;;
32347;SDS011;18821;44.800;10.326;2023-01-16T03:57:45;186.93;;;90.47;;
32347;SDS011;18821;44.800;10.326;2023-01-16T04:00:17;174.80;;;83.18;;
32347;SDS011;18821;44.800;10.326;2023-01-16T04:08:19;180.82;;;91.07;;
32347;SDS011;18821;44.800;10.326;2023-01-16T04:10:53;185.75;;;93.13;;
32347;SDS011;18821;44.800;10.326;2023-01-16T04:13:21;180.70;;;87.50;;
32347;SDS011;18821;44.800;10.326;2023-01-16T04:15:55;181.30;;;84.32;;
32347;SDS011;18821;44.800;10.326;2023-01-16T04:18:25;190.52;;;87.97;;
32347;SDS011;18821;44.800;10.326;2023-01-16T04:21:00;168.73;;;82.00;;
32347;SDS011;18821;44.800;10.326;2023-01-16T04:23:29;186.25;;;89.57;;
32347;SDS011;18821;44.800;10.326;2023-01-16T04:25:56;189.13;;;94.57;;
32347;SDS011;18821;44.800;10.326;2023-01-16T04:28:22;197.48;;;95.72;;
32347;SDS011;18821;44.800;10.326;2023-01-16T04:30:51;210.60;;;98.15;;
32347;SDS011;18821;44.800;10.326;2023-01-16T04:33:17;213.95;;;99.47;;
32347;SDS011;18821;44.800;10.326;2023-01-16T04:35:46;211.18;;;100.20;;
32347;SDS011;18821;44.800;10.326;2023-01-16T04:38:11;204.55;;;96.22;;
32347;SDS011;18821;44.800;10.326;2023-01-16T04:40:38;202.18;;;98.20;;
32347;SDS011;18821;44.800;10.326;2023-01-16T04:43:04;204.93;;;96.70;;
32347;SDS011;18821;44.800;10.326;2023-01-16T04:45:30;192.20;;;93.68;;
32347;SDS011;18821;44.800;10.326;2023-01-16T04:47:56;193.40;;;93.05;;
32347;SDS011;18821;44.800;10.326;2023-01-16T04:50:21;193.63;;;92.32;;
32347;SDS011;18821;44.800;10.326;2023-01-16T04:52:47;194.30;;;90.97;;
32347;SDS011;18821;44.800;10.326;2023-01-16T04:55:13;210.68;;;95.90;;
32347;SDS011;18821;44.800;10.326;2023-01-16T04:57:40;204.57;;;97.13;;
32347;SDS011;18821;44.800;10.326;2023-01-16T05:00:07;197.15;;;95.70;;
32347;SDS011;18821;44.800;10.326;2023-01-16T05:02:35;206.35;;;96.53;;
32347;SDS011;18821;44.800;10.326;2023-01-16T05:05:01;202.00;;;93.50;;
32347;SDS011;18821;44.800;10.326;2023-01-16T05:07:27;190.98;;;91.72;;
32347;SDS011;18821;44.800;10.326;2023-01-16T05:09:53;200.60;;;92.70;;
32347;SDS011;18821;44.800;10.326;2023-01-16T05:12:19;186.70;;;88.00;;
32347;SDS011;18821;44.800;10.326;2023-01-16T05:15:00;180.88;;;88.50;;
32347;SDS011;18821;44.800;10.326;2023-01-16T05:17:26;191.10;;;89.00;;
32347;SDS011;18821;44.800;10.326;2023-01-16T05:19:52;189.00;;;88.22;;
32347;SDS011;18821;44.800;10.326;2023-01-16T05:22:18;190.32;;;87.97;;
32347;SDS011;18821;44.800;10.326;2023-01-16T05:24:44;192.70;;;91.13;;
32347;SDS011;18821;44.800;10.326;2023-01-16T05:27:10;188.57;;;88.75;;
32347;SDS011;18821;44.800;10.326;2023-01-16T05:29:36;186.70;;;89.00;;
32347;SDS011;18821;44.800;10.326;2023-01-16T05:32:02;186.90;;;87.78;;
32347;SDS011;18821;44.800;10.326;2023-01-16T05:34:28;191.13;;;88.97;;
32347;SDS011;18821;44.800;10.326;2023-01-16T05:36:54;186.13;;;88.28;;
32347;SDS011;18821;44.800;10.326;2023-01-16T05:39:20;170.80;;;82.53;;
32347;SDS011;18821;44.800;10.326;2023-01-16T05:41:46;180.40;;;83.10;;
32347;SDS011;18821;44.800;10.326;2023-01-16T05:44:12;167.95;;;85.05;;
32347;SDS011;18821;44.800;10.326;2023-01-16T05:46:38;172.95;;;84.97;;
32347;SDS011;18821;44.800;10.326;2023-01-16T05:49:03;165.93;;;82.00;;
32347;SDS011;18821;44.800;10.326;2023-01-16T05:51:53;173.95;;;82.15;;
32347;SDS011;18821;44.800;10.326;2023-01-16T05:54:19;166.93;;;77.65;;
32347;SDS011;18821;44.800;10.326;2023-01-16T05:56:44;160.20;;;79.47;;
32347;SDS011;18821;44.800;10.326;2023-01-16T05:59:10;158.35;;;77.38;;
32347;SDS011;18821;44.800;10.326;2023-01-16T06:01:36;159.52;;;79.18;;
32347;SDS011;18821;44.800;10.326;2023-01-16T06:04:02;165.15;;;78.95;;
32347;SDS011;18821;44.800;10.326;2023-01-16T06:06:28;163.30;;;81.65;;
32347;SDS011;18821;44.800;10.326;2023-01-16T06:08:54;169.98;;;82.80;;
32347;SDS011;18821;44.800;10.326;2023-01-16T06:11:30;185.52;;;88.25;;
32347;SDS011;18821;44.800;10.326;2023-01-16T06:13:56;187.05;;;89.30;;
32347;SDS011;18821;44.800;10.326;2023-01-16T06:16:24;182.50;;;89.05;;
32347;SDS011;18821;44.800;10.326;2023-01-16T06:18:50;186.35;;;89.53;;
32347;SDS011;18821;44.800;10.326;2023-01-16T06:21:16;194.85;;;88.45;;
32347;SDS011;18821;44.800;10.326;2023-01-16T06:23:42;176.18;;;85.70;;
32347;SDS011;18821;44.800;10.326;2023-01-16T06:26:08;181.88;;;85.50;;
32347;SDS011;18821;44.800;10.326;2023-01-16T06:28:37;170.80;;;80.78;;
32347;SDS011;18821;44.800;10.326;2023-01-16T06:31:04;184.63;;;85.80;;
32347;SDS011;18821;44.800;10.326;2023-01-16T06:33:31;164.35;;;76.97;;
32347;SDS011;18821;44.800;10.326;2023-01-16T06:35:57;160.20;;;76.35;;
32347;SDS011;18821;44.800;10.326;2023-01-16T06:38:23;156.75;;;74.80;;
32347;SDS011;18821;44.800;10.326;2023-01-16T06:40:49;151.82;;;74.38;;
32347;SDS011;18821;44.800;10.326;2023-01-16T06:43:24;149.25;;;73.15;;
32347;SDS011;18821;44.800;10.326;2023-01-16T06:45:52;155.75;;;74.28;;
32347;SDS011;18821;44.800;10.326;2023-01-16T06:48:19;150.63;;;70.45;;
32347;SDS011;18821;44.800;10.326;2023-01-16T06:50:45;150.00;;;70.03;;
32347;SDS011;18821;44.800;10.326;2023-01-16T06:53:11;135.60;;;65.40;;
32347;SDS011;18821;44.800;10.326;2023-01-16T06:55:37;147.90;;;67.30;;
32347;SDS011;18821;44.800;10.326;2023-01-16T06:58:04;144.07;;;66.07;;
32347;SDS011;18821;44.800;10.326;2023-01-16T07:00:30;155.10;;;69.43;;
32347;SDS011;18821;44.800;10.326;2023-01-16T07:02:56;137.80;;;64.38;;
32347;SDS011;18821;44.800;10.326;2023-01-16T07:05:23;143.48;;;65.13;;
32347;SDS011;18821;44.800;10.326;2023-01-16T07:07:50;152.95;;;67.30;;
32347;SDS011;18821;44.800;10.326;2023-01-16T07:10:36;141.93;;;67.70;;
32347;SDS011;18821;44.800;10.326;2023-01-16T07:13:03;148.23;;;69.30;;
32347;SDS011;18821;44.800;10.326;2023-01-16T07:15:29;151.75;;;68.80;;
32347;SDS011;18821;44.800;10.326;2023-01-16T07:18:14;147.70;;;68.38;;
32347;SDS011;18821;44.800;10.326;2023-01-16T07:21:00;157.88;;;70.65;;
32347;SDS011;18821;44.800;10.326;2023-01-16T07:23:51;157.38;;;72.65;;
32347;SDS011;18821;44.800;10.326;2023-01-16T07:26:23;165.98;;;73.22;;
32347;SDS011;18821;44.800;10.326;2023-01-16T07:28:49;199.48;;;86.75;;
32347;SDS011;18821;44.800;10.326;2023-01-16T07:31:17;194.23;;;84.50;;
32347;SDS011;18821;44.800;10.326;2023-01-16T07:33:43;185.13;;;85.97;;
32347;SDS011;18821;44.800;10.326;2023-01-16T07:36:09;188.45;;;86.00;;
32347;SDS011;18821;44.800;10.326;2023-01-16T07:38:35;191.52;;;84.85;;
32347;SDS011;18821;44.800;10.326;2023-01-16T07:41:01;172.23;;;81.70;;
32347;SDS011;18821;44.800;10.326;2023-01-16T07:43:27;186.02;;;87.75;;
32347;SDS011;18821;44.800;10.326;2023-01-16T07:45:53;199.88;;;94.93;;
32347;SDS011;18821;44.800;10.326;2023-01-16T07:48:19;183.07;;;82.85;;
32347;SDS011;18821;44.800;10.326;2023-01-16T07:50:56;172.88;;;81.93;;
32347;SDS011;18821;44.800;10.326;2023-01-16T07:53:23;174.13;;;81.32;;
32347;SDS011;18821;44.800;10.326;2023-01-16T07:55:52;173.18;;;85.03;;
32347;SDS011;18821;44.800;10.326;2023-01-16T07:58:20;162.48;;;76.68;;
32347;SDS011;18821;44.800;10.326;2023-01-16T08:00:47;164.93;;;79.68;;
32347;SDS011;18821;44.800;10.326;2023-01-16T08:03:19;159.05;;;81.20;;
32347;SDS011;18821;44.800;10.326;2023-01-16T08:05:45;168.05;;;81.97;;
32347;SDS011;18821;44.800;10.326;2023-01-16T08:08:12;160.15;;;80.22;;
32347;SDS011;18821;44.800;10.326;2023-01-16T08:10:38;154.70;;;77.72;;
32347;SDS011;18821;44.800;10.326;2023-01-16T08:13:05;176.23;;;83.72;;
32347;SDS011;18821;44.800;10.326;2023-01-16T08:15:31;177.65;;;84.60;;
32347;SDS011;18821;44.800;10.326;2023-01-16T08:17:57;183.93;;;88.68;;
32347;SDS011;18821;44.800;10.326;2023-01-16T08:20:23;177.27;;;84.88;;
32347;SDS011;18821;44.800;10.326;2023-01-16T08:22:56;181.57;;;87.90;;
32347;SDS011;18821;44.800;10.326;2023-01-16T08:25:23;174.43;;;85.18;;
32347;SDS011;18821;44.800;10.326;2023-01-16T08:27:49;177.43;;;88.45;;
32347;SDS011;18821;44.800;10.326;2023-01-16T08:33:01;168.73;;;84.80;;
32347;SDS011;18821;44.800;10.326;2023-01-16T08:35:28;169.38;;;82.22;;
32347;SDS011;18821;44.800;10.326;2023-01-16T08:37:54;170.02;;;83.10;;
32347;SDS011;18821;44.800;10.326;2023-01-16T08:40:19;171.18;;;82.53;;
32347;SDS011;18821;44.800;10.326;2023-01-16T08:42:46;184.20;;;84.82;;
32347;SDS011;18821;44.800;10.326;2023-01-16T08:45:30;169.90;;;81.75;;
32347;SDS011;18821;44.800;10.326;2023-01-16T08:48:15;172.27;;;79.47;;
32347;SDS011;18821;44.800;10.326;2023-01-16T08:51:06;176.60;;;81.07;;
32347;SDS011;18821;44.800;10.326;2023-01-16T08:56:17;161.10;;;73.55;;
32347;SDS011;18821;44.800;10.326;2023-01-16T08:58:44;177.02;;;82.25;;
32347;SDS011;18821;44.800;10.326;2023-01-16T09:01:09;170.35;;;81.05;;
32347;SDS011;18821;44.800;10.326;2023-01-16T09:03:42;165.25;;;81.35;;
32347;SDS011;18821;44.800;10.326;2023-01-16T09:06:08;173.30;;;82.80;;
32347;SDS011;18821;44.800;10.326;2023-01-16T09:08:34;159.32;;;82.22;;
32347;SDS011;18821;44.800;10.326;2023-01-16T09:11:00;178.82;;;84.60;;
32347;SDS011;18821;44.800;10.326;2023-01-16T09:13:44;180.20;;;84.50;;
32347;SDS011;18821;44.800;10.326;2023-01-16T09:16:22;171.07;;;84.50;;
32347;SDS011;18821;44.800;10.326;2023-01-16T09:18:49;170.98;;;82.07;;
32347;SDS011;18821;44.800;10.326;2023-01-16T09:21:15;161.48;;;78.47;;
32347;SDS011;18821;44.800;10.326;2023-01-16T09:23:44;171.00;;;83.38;;
32347;SDS011;18821;44.800;10.326;2023-01-16T09:26:11;181.70;;;84.15;;
32347;SDS011;18821;44.800;10.326;2023-01-16T09:28:37;162.63;;;80.68;;
32347;SDS011;18821;44.800;10.326;2023-01-16T09:31:03;170.18;;;81.72;;
32347;SDS011;18821;44.800;10.326;2023-01-16T09:33:29;177.80;;;82.40;;
32347;SDS011;18821;44.800;10.326;2023-01-16T09:35:55;177.07;;;83.95;;
32347;SDS011;18821;44.800;10.326;2023-01-16T09:38:21;187.52;;;87.32;;
32347;SDS011;18821;44.800;10.326;2023-01-16T09:40:47;179.77;;;84.30;;
32347;SDS011;18821;44.800;10.326;2023-01-16T09:43:32;169.75;;;82.28;;
32347;SDS011;18821;44.800;10.326;2023-01-16T09:46:10;186.07;;;88.88;;
32347;SDS011;18821;44.800;10.326;2023-01-16T09:48:51;187.90;;;89.95;;
32347;SDS011;18821;44.800;10.326;2023-01-16T09:51:28;201.55;;;90.43;;
32347;SDS011;18821;44.800;10.326;2023-01-16T09:56:56;201.50;;;91.82;;
32347;SDS011;18821;44.800;10.326;2023-01-16T09:59:47;205.05;;;92.03;;
32347;SDS011;18821;44.800;10.326;2023-01-16T10:05:01;194.23;;;86.93;;
32347;SDS011;18821;44.800;10.326;2023-01-16T10:15:45;177.45;;;79.28;;
32347;SDS011;18821;44.800;10.326;2023-01-16T10:21:09;173.55;;;81.47;;
32347;SDS011;18821;44.800;10.326;2023-01-16T10:31:38;189.88;;;86.85;;
32347;SDS011;18821;44.800;10.326;2023-01-16T10:34:13;198.07;;;87.97;;
32347;SDS011;18821;44.800;10.326;2023-01-16T10:36:51;191.07;;;88.38;;
32347;SDS011;18821;44.800;10.326;2023-01-16T10:39:22;191.10;;;84.63;;
32347;SDS011;18821;44.800;10.326;2023-01-16T10:42:18;203.75;;;90.95;;
32347;SDS011;18821;44.800;10.326;2023-01-16T10:45:13;193.68;;;86.13;;
32347;SDS011;18821;44.800;10.326;2023-01-16T10:48:01;193.68;;;85.45;;
32347;SDS011;18821;44.800;10.326;2023-01-16T10:53:12;204.35;;;86.18;;
32347;SDS011;18821;44.800;10.326;2023-01-16T10:55:40;216.07;;;93.75;;
32347;SDS011;18821;44.800;10.326;2023-01-16T10:58:28;210.32;;;89.75;;
32347;SDS011;18821;44.800;10.326;2023-01-16T11:01:01;196.70;;;86.55;;
32347;SDS011;18821;44.800;10.326;2023-01-16T11:03:45;215.38;;;92.18;;
32347;SDS011;18821;44.800;10.326;2023-01-16T11:06:23;210.73;;;82.97;;
32347;SDS011;18821;44.800;10.326;2023-01-16T11:08:54;201.48;;;89.03;;
32347;SDS011;18821;44.800;10.326;2023-01-16T11:11:28;219.65;;;94.15;;
32347;SDS011;18821;44.800;10.326;2023-01-16T11:20:17;223.40;;;95.18;;
32347;SDS011;18821;44.800;10.326;2023-01-16T11:22:55;215.80;;;92.25;;
32347;SDS011;18821;44.800;10.326;2023-01-16T11:25:24;226.10;;;90.43;;
32347;SDS011;18821;44.800;10.326;2023-01-16T11:27:52;219.13;;;92.40;;
32347;SDS011;18821;44.800;10.326;2023-01-16T11:30:34;213.25;;;88.88;;
32347;SDS011;18821;44.800;10.326;2023-01-16T11:33:11;191.50;;;85.90;;
32347;SDS011;18821;44.800;10.326;2023-01-16T11:35:40;198.70;;;82.13;;
32347;SDS011;18821;44.800;10.326;2023-01-16T11:38:15;185.13;;;80.22;;
32347;SDS011;18821;44.800;10.326;2023-01-16T11:40:46;184.93;;;86.57;;
32347;SDS011;18821;44.800;10.326;2023-01-16T11:43:18;173.32;;;79.93;;
32347;SDS011;18821;44.800;10.326;2023-01-16T11:46:19;179.23;;;76.65;;
32347;SDS011;18821;44.800;10.326;2023-01-16T11:49:16;167.40;;;70.95;;
32347;SDS011;18821;44.800;10.326;2023-01-16T11:51:44;181.98;;;78.72;;
32347;SDS011;18821;44.800;10.326;2023-01-16T11:54:17;182.90;;;76.55;;
32347;SDS011;18821;44.800;10.326;2023-01-16T11:56:59;173.98;;;70.72;;
32347;SDS011;18821;44.800;10.326;2023-01-16T12:05:08;177.20;;;69.10;;
32347;SDS011;18821;44.800;10.326;2023-01-16T12:13:25;169.00;;;68.57;;
32347;SDS011;18821;44.800;10.326;2023-01-16T12:24:44;194.15;;;75.85;;
32347;SDS011;18821;44.800;10.326;2023-01-16T12:27:49;198.88;;;72.05;;
32347;SDS011;18821;44.800;10.326;2023-01-16T12:30:38;182.90;;;69.15;;
32347;SDS011;18821;44.800;10.326;2023-01-16T12:42:34;181.18;;;69.55;;
32347;SDS011;18821;44.800;10.326;2023-01-16T12:48:19;171.75;;;63.75;;
32347;SDS011;18821;44.800;10.326;2023-01-16T12:51:03;195.85;;;72.78;;
32347;SDS011;18821;44.800;10.326;2023-01-16T12:56:26;160.68;;;59.17;;
32347;SDS011;18821;44.800;10.326;2023-01-16T12:59:19;150.60;;;58.08;;
32347;SDS011;18821;44.800;10.326;2023-01-16T13:01:47;152.65;;;57.40;;
32347;SDS011;18821;44.800;10.326;2023-01-16T13:06:50;173.50;;;65.68;;
32347;SDS011;18821;44.800;10.326;2023-01-16T13:15:06;170.80;;;64.20;;
32347;SDS011;18821;44.800;10.326;2023-01-16T13:17:58;162.23;;;62.88;;
32347;SDS011;18821;44.800;10.326;2023-01-16T13:20:29;162.98;;;58.00;;
32347;SDS011;18821;44.800;10.326;2023-01-16T13:23:01;160.35;;;61.95;;
32347;SDS011;18821;44.800;10.326;2023-01-16T13:25:37;145.43;;;54.30;;
32347;SDS011;18821;44.800;10.326;2023-01-16T13:28:13;152.13;;;58.80;;
32347;SDS011;18821;44.800;10.326;2023-01-16T13:30:52;128.05;;;50.55;;
32347;SDS011;18821;44.800;10.326;2023-01-16T13:33:22;138.65;;;56.70;;
32347;SDS011;18821;44.800;10.326;2023-01-16T13:46:39;133.40;;;50.38;;
32347;SDS011;18821;44.800;10.326;2023-01-16T13:49:06;129.55;;;49.40;;
32347;SDS011;18821;44.800;10.326;2023-01-16T13:51:40;138.20;;;53.50;;
32347;SDS011;18821;44.800;10.326;2023-01-16T13:54:11;134.73;;;51.50;;
32347;SDS011;18821;44.800;10.326;2023-01-16T13:56:55;137.98;;;54.25;;
32347;SDS011;18821;44.800;10.326;2023-01-16T13:59:28;110.40;;;42.33;;
32347;SDS011;18821;44.800;10.326;2023-01-16T14:07:46;130.35;;;48.65;;
32347;SDS011;18821;44.800;10.326;2023-01-16T14:11:24;128.88;;;49.45;;
32347;SDS011;18821;44.800;10.326;2023-01-16T14:24:02;126.63;;;49.35;;
32347;SDS011;18821;44.800;10.326;2023-01-16T14:37:23;119.63;;;45.65;;
32347;SDS011;18821;44.800;10.326;2023-01-16T14:40:01;129.68;;;51.72;;
32347;SDS011;18821;44.800;10.326;2023-01-16T14:45:25;120.65;;;42.20;;
32347;SDS011;18821;44.800;10.326;2023-01-16T14:54:31;127.32;;;46.97;;
32347;SDS011;18821;44.800;10.326;2023-01-16T14:57:19;122.15;;;45.28;;
32347;SDS011;18821;44.800;10.326;2023-01-16T14:59:58;127.93;;;48.85;;
32347;SDS011;18821;44.800;10.326;2023-01-16T15:02:57;130.43;;;48.53;;
32347;SDS011;18821;44.800;10.326;2023-01-16T15:05:41;119.97;;;44.38;;
32347;SDS011;18821;44.800;10.326;2023-01-16T15:08:27;114.57;;;43.58;;
32347;SDS011;18821;44.800;10.326;2023-01-16T15:10:57;113.20;;;43.63;;
32347;SDS011;18821;44.800;10.326;2023-01-16T15:14:10;117.40;;;47.33;;
32347;SDS011;18821;44.800;10.326;2023-01-16T15:22:44;126.75;;;49.85;;
32347;SDS011;18821;44.800;10.326;2023-01-16T15:25:32;120.45;;;46.72;;
32347;SDS011;18821;44.800;10.326;2023-01-16T15:30:41;123.95;;;46.10;;
32347;SDS011;18821;44.800;10.326;2023-01-16T15:33:22;127.10;;;48.58;;
32347;SDS011;18821;44.800;10.326;2023-01-16T15:36:42;116.25;;;42.45;;
32347;SDS011;18821;44.800;10.326;2023-01-16T15:42:13;124.30;;;46.55;;
32347;SDS011;18821;44.800;10.326;2023-01-16T15:45:22;117.50;;;48.35;;
32347;SDS011;18821;44.800;10.326;2023-01-16T15:50:52;137.13;;;50.33;;
32347;SDS011;18821;44.800;10.326;2023-01-16T15:53:23;131.77;;;52.25;;
32347;SDS011;18821;44.800;10.326;2023-01-16T15:55:57;143.00;;;51.17;;
32347;SDS011;18821;44.800;10.326;2023-01-16T15:58:30;161.73;;;59.08;;
32347;SDS011;18821;44.800;10.326;2023-01-16T16:01:01;145.80;;;52.67;;
32347;SDS011;18821;44.800;10.326;2023-01-16T16:03:50;135.50;;;50.90;;
32347;SDS011;18821;44.800;10.326;2023-01-16T16:06:16;139.25;;;51.28;;
32347;SDS011;18821;44.800;10.326;2023-01-16T16:08:45;123.47;;;49.20;;
32347;SDS011;18821;44.800;10.326;2023-01-16T16:11:23;133.90;;;50.75;;
32347;SDS011;18821;44.800;10.326;2023-01-16T16:14:14;124.03;;;50.17;;
32347;SDS011;18821;44.800;10.326;2023-01-16T16:17:04;139.00;;;52.05;;
32347;SDS011;18821;44.800;10.326;2023-01-16T16:25:46;116.05;;;46.25;;
32347;SDS011;18821;44.800;10.326;2023-01-16T16:28:20;119.97;;;45.03;;
32347;SDS011;18821;44.800;10.326;2023-01-16T16:30:56;121.28;;;49.25;;
32347;SDS011;18821;44.800;10.326;2023-01-16T16:33:38;113.68;;;45.63;;
32347;SDS011;18821;44.800;10.326;2023-01-16T16:36:06;122.07;;;45.67;;
32347;SDS011;18821;44.800;10.326;2023-01-16T16:43:44;112.00;;;45.80;;
32347;SDS011;18821;44.800;10.326;2023-01-16T16:48:50;112.32;;;43.25;;
32347;SDS011;18821;44.800;10.326;2023-01-16T16:53:53;113.20;;;44.38;;
32347;SDS011;18821;44.800;10.326;2023-01-16T16:56:32;72.53;;;29.20;;
32347;SDS011;18821;44.800;10.326;2023-01-16T16:59:00;99.88;;;38.75;;
32347;SDS011;18821;44.800;10.326;2023-01-16T17:01:26;111.13;;;41.03;;
32347;SDS011;18821;44.800;10.326;2023-01-16T17:03:54;114.10;;;43.38;;
32347;SDS011;18821;44.800;10.326;2023-01-16T17:06:27;114.70;;;45.42;;
32347;SDS011;18821;44.800;10.326;2023-01-16T17:08:56;96.38;;;37.42;;
32347;SDS011;18821;44.800;10.326;2023-01-16T17:11:22;108.63;;;41.42;;
32347;SDS011;18821;44.800;10.326;2023-01-16T17:13:48;115.05;;;42.08;;
32347;SDS011;18821;44.800;10.326;2023-01-16T17:16:19;130.63;;;46.15;;
32347;SDS011;18821;44.800;10.326;2023-01-16T17:19:33;88.15;;;29.15;;
32347;SDS011;18821;44.800;10.326;2023-01-16T17:21:44;117.57;;;34.00;;
32347;SDS011;18821;44.800;10.326;2023-01-16T17:24:13;122.97;;;46.25;;
32347;SDS011;18821;44.800;10.326;2023-01-16T17:26:41;115.90;;;44.47;;
32347;SDS011;18821;44.800;10.326;2023-01-16T17:29:07;87.13;;;30.55;;
32347;SDS011;18821;44.800;10.326;2023-01-16T17:31:37;106.47;;;39.83;;
32347;SDS011;18821;44.800;10.326;2023-01-16T17:34:05;121.90;;;45.95;;
32347;SDS011;18821;44.800;10.326;2023-01-16T17:36:34;106.47;;;37.35;;
32347;SDS011;18821;44.800;10.326;2023-01-16T17:38:59;121.90;;;45.97;;
32347;SDS011;18821;44.800;10.326;2023-01-16T17:41:26;107.57;;;41.03;;
32347;SDS011;18821;44.800;10.326;2023-01-16T17:43:55;115.88;;;43.80;;
32347;SDS011;18821;44.800;10.326;2023-01-16T17:46:40;67.22;;;25.80;;
32347;SDS011;18821;44.800;10.326;2023-01-16T17:49:06;101.97;;;38.72;;
32347;SDS011;18821;44.800;10.326;2023-01-16T17:51:32;54.03;;;20.27;;
32347;SDS011;18821;44.800;10.326;2023-01-16T17:53:58;78.63;;;29.13;;
32347;SDS011;18821;44.800;10.326;2023-01-16T17:56:25;119.25;;;40.17;;
32347;SDS011;18821;44.800;10.326;2023-01-16T17:58:51;102.63;;;40.25;;
32347;SDS011;18821;44.800;10.326;2023-01-16T18:01:31;47.15;;;19.48;;